Time;durP1;ratioP1;P1;durP2;ratioP2;P2;SDS_P1;SDS_P2;PMS_P1;PMS_P2;Temp;Humidity;BMP_temperature;BMP_pressure;BME280_temperature;BME280_humidity;BME280_pressure;Samples;Min_cycle;Max_cycle;Signal;HPM_P1;HPM_P2
2023/03/03 00:00:38;;;;;;;;;;;;;;;12.90;60.35;102211.59;1243715;23;903;-58
2023/03/03 00:01:29;;;;;;;;;;;;;;;12.91;60.73;102215.13;1242984;23;654;-59
2023/03/03 00:02:19;;;;;;;;;;;;;;;12.90;60.64;102210.75;1243575;23;638;-59
2023/03/03 00:03:10;;;;;;;;;;;;;;;12.89;60.59;102211.69;1243554;23;645;-59
2023/03/03 00:04:00;;;;;;;;;;;;;;;12.89;61.05;102209.03;1242760;23;614;-59
2023/03/03 00:04:51;;;;;;;;;;;;;;;12.90;60.98;102211.59;1242959;23;708;-59
2023/03/03 00:05:41;;;;;;;;;;;;;;;12.91;60.70;102212.47;1242766;23;701;-59
2023/03/03 00:06:32;;;;;;;;;;;;;;;12.91;60.75;102212.47;1242923;23;700;-61
2023/03/03 00:07:22;;;;;;;;;;;;;;;12.91;61.23;102209.78;1243018;23;625;-60
2023/03/03 00:08:12;;;;;;;;;;;;;;;12.89;60.72;102207.22;1249058;23;1885;-60
2023/03/03 00:09:03;;;;;;;;;;;;;;;12.89;60.47;102209.03;1249127;23;677;-59
2023/03/03 00:09:53;;;;;;;;;;;;;;;12.88;60.57;102208.16;1242946;23;653;-59
2023/03/03 00:10:44;;;;;;;;;;;;;;;12.88;60.73;102212.66;1242764;23;626;-59
2023/03/03 00:11:34;;;;;;;;;;;;;;;12.86;60.95;102207.38;1243614;23;594;-59
2023/03/03 00:12:24;;;;;;;;;;;;;;;12.84;61.06;102207.44;1242704;23;822;-59
2023/03/03 00:13:15;;;;;;;;;;;;;;;12.83;60.85;102211.06;1242731;23;630;-59
2023/03/03 00:14:05;;;;;;;;;;;;;;;12.83;61.43;102205.72;1242763;23;618;-59
2023/03/03 00:14:56;;;;;;;;;;;;;;;12.84;61.65;102210.13;1242733;23;642;-59
2023/03/03 00:15:46;;;;;;;;;;;;;;;12.82;61.08;102209.34;1242862;23;671;-60
2023/03/03 00:16:37;;;;;;;;;;;;;;;12.82;61.01;102209.34;1242749;23;645;-59
2023/03/03 00:17:27;;;;;;;;;;;;;;;12.84;60.77;102214.63;1242725;23;731;-58
2023/03/03 00:18:18;;;;;;;;;;;;;;;12.82;60.71;102209.34;1242685;23;618;-59
2023/03/03 00:19:08;;;;;;;;;;;;;;;12.82;61.52;102214.69;1243688;23;638;-59
2023/03/03 00:19:59;;;;;;;;;;;;;;;12.80;61.61;102211.22;1249110;23;660;-59
2023/03/03 00:20:49;;;;;;;;;;;;;;;12.79;60.80;102214.84;1249157;23;638;-58
2023/03/03 00:21:40;;;;;;;;;;;;;;;12.80;61.15;102213.91;1242520;23;684;-58
2023/03/03 00:22:30;;;;;;;;;;;;;;;12.80;60.93;102216.56;1242607;23;663;-58
2023/03/03 00:23:21;;;;;;;;;;;;;;;12.80;61.15;102216.56;1242754;23;657;-60
2023/03/03 00:24:11;;;;;;;;;;;;;;;12.80;60.97;102221.94;1243573;23;641;-59
2023/03/03 00:25:02;;;;;;;;;;;;;;;12.80;61.37;102221.06;1243599;23;681;-59
2023/03/03 00:25:53;;;;;;;;;;;;;;;12.79;61.75;102225.53;1243627;23;685;-59
2023/03/03 00:26:43;;;;;;;;;;;;;;;12.79;60.86;102217.53;1242793;23;673;-59
2023/03/03 00:27:34;;;;;;;;;;;;;;;12.79;60.97;102214.84;1243541;23;661;-58
2023/03/03 00:28:26;;;;;;;;;;;;;;;12.79;60.67;102213.97;1243527;23;653;-59
2023/03/03 00:29:16;;;;;;;;;;;;;;;12.80;61.58;102218.38;1243499;23;646;-59
2023/03/03 00:30:07;;;;;;;;;;;;;;;12.79;60.73;102217.53;1247401;23;967;-59
2023/03/03 00:30:58;;;;;;;;;;;;;;;12.80;61.66;102221.94;1249401;23;661;-59
2023/03/03 00:31:49;;;;;;;;;;;;;;;12.79;61.45;102220.19;1249443;23;638;-59
2023/03/03 00:32:39;;;;;;;;;;;;;;;12.77;60.71;102214.06;1247987;23;652;-59
2023/03/03 00:33:31;;;;;;;;;;;;;;;12.78;61.07;102221.13;1247844;23;670;-59
2023/03/03 00:34:25;;;;;;;;;;;;;;;12.77;60.97;102222.09;1249307;23;641;-59
2023/03/03 00:35:15;;;;;;;;;;;;;;;12.76;61.81;102219.47;1247944;23;815;-59
2023/03/03 00:36:05;;;;;;;;;;;;;;;12.74;61.72;102222.25;1247190;23;638;-59
2023/03/03 00:36:56;;;;;;;;;;;;;;;12.75;61.00;102220.44;1248151;23;661;-59
2023/03/03 00:37:46;;;;;;;;;;;;;;;12.75;61.23;102226.66;1247773;23;656;-59
2023/03/03 00:38:37;;;;;;;;;;;;;;;12.77;61.80;102226.56;1247861;23;637;-59
2023/03/03 00:39:27;;;;;;;;;;;;;;;12.77;61.14;102224.75;1247960;23;630;-58
2023/03/03 00:40:17;;;;;;;;;;;;;;;12.75;61.81;102218.63;1247733;23;645;-59
2023/03/03 00:41:08;;;;;;;;;;;;;;;12.74;61.77;102216.03;1247916;23;646;-59
2023/03/03 00:41:59;;;;;;;;;;;;;;;12.74;62.03;102221.38;1247713;23;630;-59
2023/03/03 00:42:50;;;;;;;;;;;;;;;12.73;61.66;102223.19;1249422;23;673;-58
2023/03/03 00:43:41;;;;;;;;;;;;;;;12.73;61.56;102220.50;1249419;23;638;-59
2023/03/03 00:44:31;;;;;;;;;;;;;;;12.72;61.64;102217.94;1249500;23;677;-59
2023/03/03 00:45:22;;;;;;;;;;;;;;;12.73;61.33;102219.63;1247774;23;645;-59
2023/03/03 00:46:12;;;;;;;;;;;;;;;12.72;61.53;102220.63;1249367;23;610;-59
2023/03/03 00:47:02;;;;;;;;;;;;;;;12.72;61.86;102217.94;1247693;23;649;-59
2023/03/03 00:47:53;;;;;;;;;;;;;;;12.71;61.86;102227.78;1247922;23;1944;-59
2023/03/03 00:48:43;;;;;;;;;;;;;;;12.71;61.34;102221.56;1247827;23;673;-59
2023/03/03 00:49:34;;;;;;;;;;;;;;;12.70;61.43;102226.03;1248041;23;649;-58
2023/03/03 00:50:24;;;;;;;;;;;;;;;12.71;61.98;102227.78;1247696;23;606;-59
2023/03/03 00:51:15;;;;;;;;;;;;;;;12.71;62.01;102230.44;1247927;23;634;-58
2023/03/03 00:52:05;;;;;;;;;;;;;;;12.70;61.89;102234.06;1247769;23;654;-58
2023/03/03 00:52:56;;;;;;;;;;;;;;;12.70;61.87;102235.88;1249433;23;720;-59
2023/03/03 00:53:46;;;;;;;;;;;;;;;12.70;61.87;102231.38;1247716;23;667;-59
2023/03/03 00:54:37;;;;;;;;;;;;;;;12.70;61.38;102236.75;1247937;23;683;-59
2023/03/03 00:55:27;;;;;;;;;;;;;;;12.69;62.11;102232.34;1248109;23;623;-59
2023/03/03 00:56:17;;;;;;;;;;;;;;;12.70;61.33;102236.75;1247715;23;796;-59
2023/03/03 00:57:08;;;;;;;;;;;;;;;12.70;61.98;102242.09;1247848;23;628;-59
2023/03/03 00:57:58;;;;;;;;;;;;;;;12.70;62.09;102236.75;1248130;23;653;-59
2023/03/03 00:58:49;;;;;;;;;;;;;;;12.70;62.22;102241.22;1249202;23;685;-61
2023/03/03 00:59:39;;;;;;;;;;;;;;;12.68;61.73;102245.78;1248790;23;646;-59
2023/03/03 01:00:30;;;;;;;;;;;;;;;12.69;61.99;102242.16;1248053;23;699;-59
2023/03/03 01:01:20;;;;;;;;;;;;;;;12.69;61.81;102245.69;1247693;23;598;-59
2023/03/03 01:02:11;;;;;;;;;;;;;;;12.69;61.89;102236.81;1247839;23;661;-59
2023/03/03 01:03:01;;;;;;;;;;;;;;;12.68;61.54;102248.47;1248584;23;696;-59
2023/03/03 01:03:52;;;;;;;;;;;;;;;12.67;62.21;102241.38;1247829;23;610;-59
2023/03/03 01:04:42;;;;;;;;;;;;;;;12.67;61.40;102246.72;1248466;23;704;-59
2023/03/03 01:05:32;;;;;;;;;;;;;;;12.68;62.01;102241.28;1247501;23;649;-59
2023/03/03 01:06:23;;;;;;;;;;;;;;;12.67;61.92;102247.59;1248149;23;621;-59
2023/03/03 01:07:13;;;;;;;;;;;;;;;12.65;61.63;102246.81;1247789;23;618;-59
2023/03/03 01:08:04;;;;;;;;;;;;;;;12.65;62.23;102249.47;1247691;23;1922;-59
2023/03/03 01:08:56;;;;;;;;;;;;;;;12.64;61.44;102253.09;1247638;23;708;-59
2023/03/03 01:09:46;;;;;;;;;;;;;;;12.64;61.59;102249.56;1249447;23;633;-58
2023/03/03 01:10:36;;;;;;;;;;;;;;;12.63;61.39;102243.34;1247838;23;606;-60
2023/03/03 01:11:28;;;;;;;;;;;;;;;12.64;61.39;102247.75;1247923;23;627;-60
2023/03/03 01:12:18;;;;;;;;;;;;;;;12.63;61.93;102250.50;1249292;23;642;-59
2023/03/03 01:13:08;;;;;;;;;;;;;;;12.63;61.75;102255.84;1247730;23;625;-58
2023/03/03 01:13:59;;;;;;;;;;;;;;;12.62;62.33;102249.63;1248078;23;681;-58
2023/03/03 01:14:51;;;;;;;;;;;;;;;12.62;62.39;102254.97;1247740;23;651;-58
2023/03/03 01:15:42;;;;;;;;;;;;;;;12.63;61.54;102253.16;1249375;23;645;-58
2023/03/03 01:16:32;;;;;;;;;;;;;;;12.62;62.40;102254.97;1247698;23;648;-58
2023/03/03 01:17:23;;;;;;;;;;;;;;;12.62;62.03;102248.75;1247807;23;669;-58
2023/03/03 01:18:13;;;;;;;;;;;;;;;12.62;61.91;102254.97;1248678;23;625;-59
2023/03/03 01:19:03;;;;;;;;;;;;;;;12.63;62.07;102254.03;1247576;23;653;-58
2023/03/03 01:19:54;;;;;;;;;;;;;;;12.61;61.99;102250.56;1247323;23;650;-60
2023/03/03 01:20:44;;;;;;;;;;;;;;;12.60;61.42;102248.84;1247724;23;759;-59
2023/03/03 01:21:35;;;;;;;;;;;;;;;12.60;61.86;102251.50;1247926;23;634;-59
2023/03/03 01:22:25;;;;;;;;;;;;;;;12.58;61.58;102245.38;1248058;23;625;-59
2023/03/03 01:23:15;;;;;;;;;;;;;;;12.59;62.30;102243.56;1247549;23;628;-59
2023/03/03 01:24:06;;;;;;;;;;;;;;;12.58;62.26;102250.72;1247806;23;685;-59
2023/03/03 01:24:56;;;;;;;;;;;;;;;12.55;62.01;102248.19;1247672;23;599;-59
2023/03/03 01:25:47;;;;;;;;;;;;;;;12.58;61.54;102244.50;1247907;23;673;-59
2023/03/03 01:26:37;;;;;;;;;;;;;;;12.57;61.30;102246.31;1247586;23;654;-59
2023/03/03 01:27:28;;;;;;;;;;;;;;;12.56;61.27;102241.91;1247708;23;698;-60
2023/03/03 01:28:18;;;;;;;;;;;;;;;12.57;61.29;102237.41;1247758;23;1874;-60
2023/03/03 01:29:08;;;;;;;;;;;;;;;12.57;62.09;102246.31;1247731;23;615;-59
2023/03/03 01:29:59;;;;;;;;;;;;;;;12.57;61.60;102242.78;1247781;23;988;-60
2023/03/03 01:30:49;;;;;;;;;;;;;;;12.58;62.04;102249.84;1247579;23;642;-60
2023/03/03 01:31:40;;;;;;;;;;;;;;;12.55;61.07;102240.16;1247841;23;680;-60
2023/03/03 01:32:30;;;;;;;;;;;;;;;12.58;61.20;102247.19;1247585;23;650;-59
2023/03/03 01:33:21;;;;;;;;;;;;;;;12.54;61.34;102241.13;1249336;23;642;-59
2023/03/03 01:34:11;;;;;;;;;;;;;;;12.55;61.73;102241.97;1247880;23;657;-59
2023/03/03 01:35:02;;;;;;;;;;;;;;;12.55;61.87;102239.31;1248089;23;634;-59
2023/03/03 01:35:52;;;;;;;;;;;;;;;12.52;62.02;102249.25;1248317;23;661;-59
2023/03/03 01:36:42;;;;;;;;;;;;;;;12.52;61.12;102243.03;1248089;23;669;-59
2023/03/03 01:37:33;;;;;;;;;;;;;;;12.52;61.07;102240.34;1248246;23;681;-59
2023/03/03 01:38:23;;;;;;;;;;;;;;;12.51;61.72;102238.63;1247927;23;665;-59
2023/03/03 01:39:14;;;;;;;;;;;;;;;12.50;61.82;102240.44;1248151;23;654;-59
2023/03/03 01:40:04;;;;;;;;;;;;;;;12.48;61.71;102241.44;1249674;23;949;-58
2023/03/03 01:40:55;;;;;;;;;;;;;;;12.49;62.13;102244.03;1248235;23;823;-59
2023/03/03 01:41:45;;;;;;;;;;;;;;;12.49;61.79;102236.03;1248300;23;610;-59
2023/03/03 01:42:35;;;;;;;;;;;;;;;12.51;61.79;102249.31;1248076;23;634;-58
2023/03/03 01:43:26;;;;;;;;;;;;;;;12.52;61.10;102245.69;1248179;23;704;-58
2023/03/03 01:44:16;;;;;;;;;;;;;;;12.51;61.01;102243.97;1247934;23;599;-58
2023/03/03 01:45:07;;;;;;;;;;;;;;;12.52;61.40;102245.69;1248093;23;626;-58
2023/03/03 01:45:57;;;;;;;;;;;;;;;12.52;61.74;102251.06;1248447;23;642;-58
2023/03/03 01:46:48;;;;;;;;;;;;;;;12.51;61.67;102246.66;1248102;23;654;-59
2023/03/03 01:47:38;;;;;;;;;;;;;;;12.50;61.06;102245.78;1248377;23;627;-59
2023/03/03 01:48:28;;;;;;;;;;;;;;;12.50;61.37;102242.25;1247978;23;634;-59
2023/03/03 01:49:19;;;;;;;;;;;;;;;12.49;61.51;102246.72;1248128;23;752;-59
2023/03/03 01:50:09;;;;;;;;;;;;;;;12.50;61.93;102244.91;1248732;23;700;-59
2023/03/03 01:51:00;;;;;;;;;;;;;;;12.48;61.33;102244.13;1248223;23;649;-58
2023/03/03 01:51:50;;;;;;;;;;;;;;;12.47;62.06;102251.28;1248058;23;705;-59
2023/03/03 01:52:41;;;;;;;;;;;;;;;12.47;61.68;102253.09;1248312;23;635;-59
2023/03/03 01:53:31;;;;;;;;;;;;;;;12.46;61.83;102246.00;1248370;23;692;-60
2023/03/03 01:54:21;;;;;;;;;;;;;;;12.47;61.23;102245.06;1248134;23;614;-60
2023/03/03 01:55:12;;;;;;;;;;;;;;;12.47;60.99;102251.28;1248196;23;580;-59
2023/03/03 01:56:02;;;;;;;;;;;;;;;12.47;61.74;102239.72;1247958;23;638;-59
2023/03/03 01:56:53;;;;;;;;;;;;;;;12.48;61.42;102244.97;1248183;23;638;-59
2023/03/03 01:57:43;;;;;;;;;;;;;;;12.48;61.63;102246.78;1248000;23;646;-59
2023/03/03 01:58:34;;;;;;;;;;;;;;;12.47;61.06;102243.25;1248119;23;657;-59
2023/03/03 01:59:25;;;;;;;;;;;;;;;12.47;61.38;102239.72;1249681;23;638;-59
2023/03/03 02:00:15;;;;;;;;;;;;;;;12.49;61.74;102251.19;1247965;23;630;-59
2023/03/03 02:01:06;;;;;;;;;;;;;;;12.48;61.00;102241.44;1247971;23;665;-59
2023/03/03 02:01:56;;;;;;;;;;;;;;;12.49;61.40;102243.19;1248351;23;635;-60
2023/03/03 02:02:47;;;;;;;;;;;;;;;12.48;61.47;102242.31;1248032;23;642;-60
2023/03/03 02:03:37;;;;;;;;;;;;;;;12.48;61.14;102242.31;1248341;23;673;-60
2023/03/03 02:04:27;;;;;;;;;;;;;;;12.48;61.04;102241.44;1247927;23;796;-60
2023/03/03 02:05:18;;;;;;;;;;;;;;;12.45;61.53;102246.94;1248564;23;693;-60
2023/03/03 02:06:08;;;;;;;;;;;;;;;12.44;61.78;102245.22;1250128;23;654;-59
2023/03/03 02:06:59;;;;;;;;;;;;;;;12.44;61.87;102250.56;1248283;23;629;-60
2023/03/03 02:07:49;;;;;;;;;;;;;;;12.44;61.68;102255.91;1248320;23;661;-59
2023/03/03 02:08:39;;;;;;;;;;;;;;;12.45;61.25;102246.94;1248172;23;625;-60
2023/03/03 02:09:30;;;;;;;;;;;;;;;12.44;61.47;102254.09;1248263;23;661;-60
2023/03/03 02:10:20;;;;;;;;;;;;;;;12.44;61.74;102247.88;1247946;23;638;-60
2023/03/03 02:11:11;;;;;;;;;;;;;;;12.44;62.25;102254.09;1248040;23;672;-60
2023/03/03 02:12:01;;;;;;;;;;;;;;;12.44;61.30;102253.22;1248737;23;623;-58
2023/03/03 02:12:52;;;;;;;;;;;;;;;12.42;62.35;102252.44;1248074;23;649;-58
2023/03/03 02:13:42;;;;;;;;;;;;;;;12.42;61.41;102250.63;1248397;23;661;-59
2023/03/03 02:14:32;;;;;;;;;;;;;;;12.44;61.57;102247.88;1248090;23;610;-59
2023/03/03 02:15:23;;;;;;;;;;;;;;;12.44;61.66;102247.88;1248066;23;633;-59
2023/03/03 02:16:13;;;;;;;;;;;;;;;12.44;61.36;102253.22;1247977;23;610;-59
2023/03/03 02:17:04;;;;;;;;;;;;;;;12.42;62.03;102252.44;1248090;23;645;-58
2023/03/03 02:17:54;;;;;;;;;;;;;;;12.43;62.01;102249.69;1248443;23;700;-59
2023/03/03 02:18:45;;;;;;;;;;;;;;;12.42;61.58;102249.75;1248109;23;641;-59
2023/03/03 02:19:35;;;;;;;;;;;;;;;12.42;61.41;102247.09;1248285;23;646;-59
2023/03/03 02:20:25;;;;;;;;;;;;;;;12.41;61.95;102248.03;1247890;23;614;-59
2023/03/03 02:21:16;;;;;;;;;;;;;;;12.41;62.10;102245.34;1248166;23;626;-59
2023/03/03 02:22:07;;;;;;;;;;;;;;;12.41;62.29;102243.56;1248015;23;638;-59
2023/03/03 02:22:57;;;;;;;;;;;;;;;12.41;61.95;102240.00;1249528;23;638;-59
2023/03/03 02:23:48;;;;;;;;;;;;;;;12.39;61.40;102250.78;1248071;23;1021;-59
2023/03/03 02:24:38;;;;;;;;;;;;;;;12.40;61.23;102246.28;1248823;23;661;-59
2023/03/03 02:25:29;;;;;;;;;;;;;;;12.41;61.31;102253.38;1248086;23;634;-59
2023/03/03 02:26:21;;;;;;;;;;;;;;;12.40;61.08;102252.50;1248278;23;641;-59
2023/03/03 02:27:13;;;;;;;;;;;;;;;12.40;61.69;102248.97;1249632;23;680;-59
2023/03/03 02:28:03;;;;;;;;;;;;;;;12.40;61.06;102252.50;1249421;23;1933;-59
2023/03/03 02:28:53;;;;;;;;;;;;;;;12.40;61.78;102249.84;1248053;23;629;-59
2023/03/03 02:29:44;;;;;;;;;;;;;;;12.41;61.03;102250.69;1248054;23;1227;-59
2023/03/03 02:30:34;;;;;;;;;;;;;;;12.41;61.95;102251.56;1248012;23;666;-59
2023/03/03 02:31:25;;;;;;;;;;;;;;;12.41;61.58;102250.69;1248023;23;748;-58
2023/03/03 02:32:15;;;;;;;;;;;;;;;12.41;61.85;102256.06;1247709;23;622;-59
2023/03/03 02:33:06;;;;;;;;;;;;;;;12.40;61.53;102249.84;1248842;23;638;-59
2023/03/03 02:33:56;;;;;;;;;;;;;;;12.41;61.83;102243.56;1247953;23;614;-58
2023/03/03 02:34:47;;;;;;;;;;;;;;;12.39;61.38;102248.09;1248121;23;626;-58
2023/03/03 02:35:37;;;;;;;;;;;;;;;12.39;61.47;102247.25;1248311;23;673;-59
2023/03/03 02:36:28;;;;;;;;;;;;;;;12.39;61.71;102245.44;1248052;23;626;-59
2023/03/03 02:37:18;;;;;;;;;;;;;;;12.40;61.83;102248.97;1249547;23;649;-59
2023/03/03 02:38:09;;;;;;;;;;;;;;;12.40;61.78;102248.97;1248929;23;642;-59
2023/03/03 02:39:00;;;;;;;;;;;;;;;12.39;61.32;102245.44;1249672;23;649;-59
2023/03/03 02:39:50;;;;;;;;;;;;;;;12.38;61.95;102250.84;1248204;23;637;-59
2023/03/03 02:40:40;;;;;;;;;;;;;;;12.39;61.09;102249.91;1247970;23;606;-59
2023/03/03 02:41:31;;;;;;;;;;;;;;;12.38;61.93;102245.50;1248141;23;693;-59
2023/03/03 02:42:21;;;;;;;;;;;;;;;12.37;61.96;102249.97;1248667;23;696;-59
2023/03/03 02:43:12;;;;;;;;;;;;;;;12.38;61.27;102250.84;1247992;23;637;-59
2023/03/03 02:44:02;;;;;;;;;;;;;;;12.39;61.84;102247.25;1247911;23;640;-59
2023/03/03 02:44:53;;;;;;;;;;;;;;;12.38;61.62;102246.38;1248133;23;661;-59
2023/03/03 02:45:43;;;;;;;;;;;;;;;12.38;61.57;102240.16;1248235;23;646;-59
2023/03/03 02:46:34;;;;;;;;;;;;;;;12.35;60.90;102245.69;1247425;23;616;-59
2023/03/03 02:47:24;;;;;;;;;;;;;;;12.34;61.27;102238.59;1248144;23;676;-59
2023/03/03 02:48:14;;;;;;;;;;;;;;;12.34;61.69;102243.94;1247795;23;1909;-59
2023/03/03 02:49:05;;;;;;;;;;;;;;;12.34;61.69;102243.94;1248015;23;634;-60
2023/03/03 02:49:55;;;;;;;;;;;;;;;12.34;61.07;102243.94;1248254;23;658;-60
2023/03/03 02:50:46;;;;;;;;;;;;;;;12.35;61.69;102246.56;1248440;23;636;-59
2023/03/03 02:51:36;;;;;;;;;;;;;;;12.35;61.34;102246.56;1249394;23;617;-59
2023/03/03 02:52:30;;;;;;;;;;;;;;;12.35;61.31;102246.56;1248994;23;631;-59
2023/03/03 02:53:20;;;;;;;;;;;;;;;12.34;61.15;102249.31;1248135;23;613;-59
2023/03/03 02:54:11;;;;;;;;;;;;;;;12.34;61.65;102251.97;1247880;23;602;-59
2023/03/03 02:55:01;;;;;;;;;;;;;;;12.35;61.79;102251.03;1248079;23;645;-60
2023/03/03 02:55:51;;;;;;;;;;;;;;;12.33;61.83;102245.75;1247902;23;612;-59
2023/03/03 02:56:42;;;;;;;;;;;;;;;12.35;61.51;102243.00;1248011;23;634;-60
2023/03/03 02:57:32;;;;;;;;;;;;;;;12.34;61.65;102246.63;1248289;23;693;-59
2023/03/03 02:58:23;;;;;;;;;;;;;;;12.34;61.71;102243.94;1247952;23;606;-60
2023/03/03 02:59:13;;;;;;;;;;;;;;;12.33;61.66;102243.09;1248030;23;730;-60
2023/03/03 03:00:04;;;;;;;;;;;;;;;12.33;61.70;102245.75;1248016;23;625;-60
2023/03/03 03:00:54;;;;;;;;;;;;;;;12.33;61.70;102242.22;1248138;23;642;-59
2023/03/03 03:01:45;;;;;;;;;;;;;;;12.32;61.67;102241.34;1249685;23;645;-59
2023/03/03 03:02:35;;;;;;;;;;;;;;;12.34;61.05;102239.47;1248478;23;649;-58
2023/03/03 03:03:26;;;;;;;;;;;;;;;12.33;60.84;102248.44;1249961;23;622;-59
2023/03/03 03:04:16;;;;;;;;;;;;;;;12.34;61.91;102250.16;1249139;23;704;-58
2023/03/03 03:05:07;;;;;;;;;;;;;;;12.32;61.62;102241.34;1247909;23;646;-59
2023/03/03 03:05:58;;;;;;;;;;;;;;;12.31;61.52;102246.78;1249601;23;650;-59
2023/03/03 03:06:48;;;;;;;;;;;;;;;12.32;61.98;102243.16;1248224;23;653;-59
2023/03/03 03:07:39;;;;;;;;;;;;;;;12.33;61.70;102247.56;1247945;23;639;-60
2023/03/03 03:08:29;;;;;;;;;;;;;;;12.30;61.68;102247.72;1248179;23;682;-59
2023/03/03 03:09:19;;;;;;;;;;;;;;;12.30;61.85;102250.38;1247899;23;642;-60
2023/03/03 03:10:10;;;;;;;;;;;;;;;12.30;61.76;102245.91;1247882;23;653;-59
2023/03/03 03:11:00;;;;;;;;;;;;;;;12.29;61.72;102248.66;1247856;23;637;-59
2023/03/03 03:11:51;;;;;;;;;;;;;;;12.31;61.08;102250.31;1247966;23;610;-60
2023/03/03 03:12:41;;;;;;;;;;;;;;;12.32;60.92;102248.50;1248218;23;653;-60
2023/03/03 03:13:32;;;;;;;;;;;;;;;12.32;61.87;102240.50;1247880;23;1056;-59
2023/03/03 03:14:22;;;;;;;;;;;;;;;12.32;61.39;102251.19;1248059;23;688;-60
2023/03/03 03:15:14;;;;;;;;;;;;;;;12.31;61.29;102249.44;1249617;23;621;-60
2023/03/03 03:16:05;;;;;;;;;;;;;;;12.29;61.78;102240.63;1249445;23;614;-60
2023/03/03 03:16:55;;;;;;;;;;;;;;;12.28;61.63;102245.13;1248159;23;678;-59
2023/03/03 03:17:46;;;;;;;;;;;;;;;12.29;61.17;102245.97;1247880;23;655;-60
2023/03/03 03:18:36;;;;;;;;;;;;;;;12.29;61.02;102251.31;1248202;23;622;-60
2023/03/03 03:19:27;;;;;;;;;;;;;;;12.30;61.79;102242.38;1247934;23;681;-60
2023/03/03 03:20:17;;;;;;;;;;;;;;;12.31;61.50;102249.44;1249466;23;700;-59
2023/03/03 03:21:08;;;;;;;;;;;;;;;12.29;61.62;102240.63;1247801;23;610;-59
2023/03/03 03:21:58;;;;;;;;;;;;;;;12.29;61.21;102241.50;1248103;23;677;-59
2023/03/03 03:22:49;;;;;;;;;;;;;;;12.28;61.54;102239.78;1248049;23;594;-60
2023/03/03 03:23:39;;;;;;;;;;;;;;;12.27;61.20;102238.03;1248104;23;682;-60
2023/03/03 03:24:29;;;;;;;;;;;;;;;12.28;61.43;102233.56;1247818;23;652;-60
2023/03/03 03:25:20;;;;;;;;;;;;;;;12.27;61.71;102237.16;1248005;23;674;-59
2023/03/03 03:26:10;;;;;;;;;;;;;;;12.26;61.51;102235.44;1248429;23;618;-59
2023/03/03 03:27:01;;;;;;;;;;;;;;;12.28;61.70;102236.22;1244114;23;665;-59
2023/03/03 03:27:51;;;;;;;;;;;;;;;12.27;61.26;102235.38;1244184;23;629;-60
2023/03/03 03:28:42;;;;;;;;;;;;;;;12.28;61.92;102238.91;1249588;23;661;-60
2023/03/03 03:29:32;;;;;;;;;;;;;;;12.27;61.50;102235.38;1248197;23;676;-59
2023/03/03 03:30:22;;;;;;;;;;;;;;;12.27;61.79;102234.50;1247216;23;648;-59
2023/03/03 03:31:13;;;;;;;;;;;;;;;12.27;61.79;102237.16;1248073;23;578;-58
2023/03/03 03:32:03;;;;;;;;;;;;;;;12.26;60.90;102241.66;1248204;23;646;-59
2023/03/03 03:32:54;;;;;;;;;;;;;;;12.26;61.73;102233.63;1249229;23;622;-59
2023/03/03 03:33:44;;;;;;;;;;;;;;;12.27;61.59;102231.81;1248512;23;638;-59
2023/03/03 03:34:35;;;;;;;;;;;;;;;12.26;61.88;102235.44;1247884;23;643;-58
2023/03/03 03:35:25;;;;;;;;;;;;;;;12.27;60.98;102237.16;1247968;23;665;-59
2023/03/03 03:36:15;;;;;;;;;;;;;;;12.25;61.46;102236.38;1247739;23;709;-59
2023/03/03 03:37:08;;;;;;;;;;;;;;;12.24;61.52;102232.84;1247897;23;614;-60
2023/03/03 03:37:59;;;;;;;;;;;;;;;12.25;62.00;102233.69;1249442;23;658;-60
2023/03/03 03:38:49;;;;;;;;;;;;;;;12.25;61.75;102237.25;1248056;23;634;-60
2023/03/03 03:39:39;;;;;;;;;;;;;;;12.25;61.14;102236.38;1247881;23;645;-60
2023/03/03 03:40:30;;;;;;;;;;;;;;;12.24;61.59;102240.00;1247888;23;679;-60
2023/03/03 03:41:20;;;;;;;;;;;;;;;12.23;61.37;102236.44;1248101;23;687;-60
2023/03/03 03:42:11;;;;;;;;;;;;;;;12.23;61.84;102239.13;1247836;23;644;-60
2023/03/03 03:43:01;;;;;;;;;;;;;;;12.24;61.32;102240.00;1248106;23;685;-59
2023/03/03 03:43:52;;;;;;;;;;;;;;;12.24;61.16;102242.66;1247939;23;614;-60
2023/03/03 03:44:42;;;;;;;;;;;;;;;12.24;61.17;102245.34;1247419;23;649;-60
2023/03/03 03:45:32;;;;;;;;;;;;;;;12.24;61.92;102242.66;1247783;23;641;-59
2023/03/03 03:46:23;;;;;;;;;;;;;;;12.24;61.77;102251.53;1247937;23;661;-60
2023/03/03 03:47:13;;;;;;;;;;;;;;;12.25;61.90;102244.41;1248027;23;633;-60
2023/03/03 03:48:04;;;;;;;;;;;;;;;12.25;61.70;102249.75;1247599;23;1897;-59
2023/03/03 03:48:54;;;;;;;;;;;;;;;12.24;62.06;102251.53;1248101;23;693;-60
2023/03/03 03:49:44;;;;;;;;;;;;;;;12.22;61.88;102247.22;1247839;23;607;-60
2023/03/03 03:50:35;;;;;;;;;;;;;;;12.22;61.62;102249.88;1247896;23;622;-60
2023/03/03 03:51:26;;;;;;;;;;;;;;;12.21;62.00;102245.47;1249437;23;613;-60
2023/03/03 03:52:16;;;;;;;;;;;;;;;12.20;62.16;102246.41;1247931;23;642;-60
2023/03/03 03:53:07;;;;;;;;;;;;;;;12.20;62.02;102241.06;1247749;23;614;-60
2023/03/03 03:53:57;;;;;;;;;;;;;;;12.22;61.11;102257.91;1248080;23;677;-60
2023/03/03 03:54:47;;;;;;;;;;;;;;;12.21;62.07;102248.16;1247721;23;614;-60
2023/03/03 03:55:38;;;;;;;;;;;;;;;12.22;61.70;102252.56;1249564;23;641;-60
2023/03/03 03:56:28;;;;;;;;;;;;;;;12.22;61.97;102250.75;1248014;23;657;-60
2023/03/03 03:57:19;;;;;;;;;;;;;;;12.20;61.36;102247.28;1247558;23;648;-60
2023/03/03 03:58:09;;;;;;;;;;;;;;;12.20;61.56;102252.63;1247998;23;704;-60
2023/03/03 03:59:00;;;;;;;;;;;;;;;12.20;61.89;102257.09;1247705;23;637;-60
2023/03/03 03:59:50;;;;;;;;;;;;;;;12.19;61.18;102256.25;1248134;23;708;-60
2023/03/03 04:00:41;;;;;;;;;;;;;;;12.18;61.92;102253.69;1247911;23;626;-60
2023/03/03 04:01:31;;;;;;;;;;;;;;;12.21;61.14;102258.84;1248103;23;653;-60
2023/03/03 04:02:21;;;;;;;;;;;;;;;12.20;61.33;102257.97;1247651;23;653;-60
2023/03/03 04:03:15;;;;;;;;;;;;;;;12.18;61.66;102255.38;1247859;23;676;-60
2023/03/03 04:04:05;;;;;;;;;;;;;;;12.18;61.21;102261.69;1249476;23;672;-60
2023/03/03 04:04:56;;;;;;;;;;;;;;;12.19;61.94;102258.91;1248002;23;637;-60
2023/03/03 04:05:46;;;;;;;;;;;;;;;12.18;61.08;102251.00;1247981;23;664;-60
2023/03/03 04:06:37;;;;;;;;;;;;;;;12.19;61.13;102253.56;1247852;23;639;-60
2023/03/03 04:07:27;;;;;;;;;;;;;;;12.18;61.49;102255.38;1247992;23;661;-60
2023/03/03 04:08:17;;;;;;;;;;;;;;;12.18;61.09;102252.69;1247665;23;1931;-60
2023/03/03 04:09:08;;;;;;;;;;;;;;;12.16;61.54;102257.28;1247869;23;610;-60
2023/03/03 04:09:58;;;;;;;;;;;;;;;12.16;61.76;102259.97;1248011;23;654;-60
2023/03/03 04:10:49;;;;;;;;;;;;;;;12.16;61.28;102257.28;1248356;23;649;-59
2023/03/03 04:11:39;;;;;;;;;;;;;;;12.16;61.39;102257.28;1247827;23;673;-60
2023/03/03 04:12:34;;;;;;;;;;;;;;;12.18;61.28;102264.38;1249005;23;609;-60
2023/03/03 04:13:27;;;;;;;;;;;;;;;12.17;61.44;102252.81;1249379;23;630;-60
2023/03/03 04:14:18;;;;;;;;;;;;;;;12.18;61.29;102259.03;1249402;23;654;-59
2023/03/03 04:15:08;;;;;;;;;;;;;;;12.18;61.89;102259.03;1247905;23;649;-60
2023/03/03 04:15:58;;;;;;;;;;;;;;;12.16;61.24;102257.28;1247722;23;708;-60
2023/03/03 04:16:49;;;;;;;;;;;;;;;12.15;61.92;102258.22;1247929;23;626;-60
2023/03/03 04:17:39;;;;;;;;;;;;;;;12.15;61.37;102266.25;1248429;23;653;-60
2023/03/03 04:18:30;;;;;;;;;;;;;;;12.15;61.96;102258.22;1249069;23;614;-60
2023/03/03 04:19:20;;;;;;;;;;;;;;;12.16;61.29;102259.09;1248206;23;665;-60
2023/03/03 04:20:11;;;;;;;;;;;;;;;12.15;61.68;102258.22;1247734;23;630;-60
2023/03/03 04:21:01;;;;;;;;;;;;;;;12.15;61.91;102260.91;1247943;23;668;-59
2023/03/03 04:21:52;;;;;;;;;;;;;;;12.16;61.48;102251.06;1248625;23;625;-59
2023/03/03 04:22:42;;;;;;;;;;;;;;;12.16;61.99;102254.63;1247882;23;598;-59
2023/03/03 04:23:32;;;;;;;;;;;;;;;12.15;61.83;102252.88;1248086;23;653;-59
2023/03/03 04:24:23;;;;;;;;;;;;;;;12.14;61.91;102252.94;1247770;23;629;-59
2023/03/03 04:25:13;;;;;;;;;;;;;;;12.14;61.17;102248.47;1247976;23;641;-59
2023/03/03 04:26:04;;;;;;;;;;;;;;;12.14;62.13;102253.81;1247681;23;635;-60
2023/03/03 04:26:54;;;;;;;;;;;;;;;12.14;61.87;102253.81;1247965;23;665;-59